Líbí se Vám tento web? Budeme velmi rádi, pokud přidáte hodnocení +1

Seznam meteostanic a jejich METAR

Vyhledat místa podle abecedy:
A B C D E F G H I J K L M N O P Q R S T U V W X Y Z

Filtrovat:

ID stanice:
a/nebo
Název místa (fulltext):
 
Místo (ID)Naposledy načteno 
Pardubice (Pardubice) 17.01.2018 21:00 UTC Zobrazit data
Místo: Pardubice
Teplota: 0 °C (pocitová: -9.2 °C)
Vítr: 5 m/s z(e) 250°
Počasí: sněží
Dohlednost: 2000 m
Zákl. oblačnosti: 3/8 210 m;5/8 600 m
Vlhkost: 100%
Pec pod Sněžkou (Pec p.Snez) 17.01.2018 20:00 UTC Zobrazit data
Místo: Pec pod Sněžkou
Teplota: -3 °C (pocitová: -8 °C)
Vítr: 1 m/s z(e) 0°
Počasí: sněží
Dohlednost: 10 km
Zákl. oblačnosti: 7/8 600 m
Vlhkost: 86%
Plzeň město - Mikulka (Plzen/Miku) 17.01.2018 21:00 UTC Zobrazit data
Místo: Plzeň město - Mikulka
Teplota: 1 °C (pocitová: -7.8 °C)
Vítr: 5 m/s z(e) 250°
Počasí: sněží
Dohlednost: 35 km
Zákl. oblačnosti: 1/8 780 m;3/8 1500 m
Vlhkost: 87%
Polom (Polom) 17.01.2018 21:00 UTC Zobrazit data
Místo: Polom
Teplota: -3 °C (pocitová: -9.8 °C)
Vítr: 2 m/s z(e) 220°
Počasí: zataženo
Dohlednost: 2000 m
Zákl. oblačnosti: 8/8 30 m
Vlhkost: 100%
Praha - Karlov (Praha/Kar) 17.01.2018 21:00 UTC Zobrazit data
Místo: Praha - Karlov
Teplota: 1 °C (pocitová: -8.3 °C)
Vítr: 6 m/s z(e) 260°
Počasí: sněží
Dohlednost: 9 km
Zákl. oblačnosti: 1/8 630 m;5/8 900 m
Vlhkost: 87%
Praha - Kbely (Praha/Kbe) 17.01.2018 21:00 UTC Zobrazit data
Místo: Praha - Kbely
Teplota: 0 °C (pocitová: -11.5 °C)
Vítr: 10 m/s z(e) 250°
Počasí: sněží
Dohlednost: 2000 m
Zákl. oblačnosti: 4/8 360 m;8/8 990 m
Vlhkost: 93%
Praha - Libuš (Praha/Lib) 17.01.2018 21:00 UTC Zobrazit data
Místo: Praha - Libuš
Teplota: 1 °C (pocitová: -6 °C)
Vítr: 3 m/s z(e) 270°
Počasí: sněží
Dohlednost: 5 km
Zákl. oblačnosti: 4/8 360 m;4/8 930 m
Vlhkost: 93%
Praha - Ruzyně (Praha/Ru) 17.01.2018 21:00 UTC Zobrazit data
Místo: Praha - Ruzyně
Teplota: 0 °C (pocitová: -10.4 °C)
Vítr: 7 m/s z(e) 250°
Počasí: sněží
Dohlednost: 12 km
Zákl. oblačnosti: 3/8 660 m;6/8 1050 m
Vlhkost: 100%
Přibyslav (Pribyslav) 17.01.2018 21:00 UTC Zobrazit data
Místo: Přibyslav
Teplota: -1 °C (pocitová: -9.8 °C)
Vítr: 4 m/s z(e) 260°
Počasí: sněží
Dohlednost: 400 m
Zákl. oblačnosti: 1/8 180 m;3/8 270 m
Vlhkost: 100%
Přimda (Primda) 17.01.2018 21:00 UTC Zobrazit data
Místo: Přimda
Teplota: -1 °C (pocitová: -12.5 °C)
Vítr: 9 m/s z(e) 280°
Počasí: sněží
Dohlednost: 6 km
Zákl. oblačnosti: 8/8 210 m
Vlhkost: 93%
Pago Pago (NSTU) 17.01.2018 20:50 UTC Zobrazit METAR
NSTU 172050Z 09010KT 12SM FEW017 SCT120 BKN200 30/25 A2988 RMK SLP120 8/171 T03030246 51007
Palanga (EYPA) 17.01.2018 20:50 UTC Zobrazit METAR
EYPA 172050Z 14004KT 9999 OVC011 M05/M06 Q0993 R19/450195
Palermo (LICJ) 17.01.2018 20:50 UTC Zobrazit METAR
LICJ 172050Z 33018KT 9999 FEW025 14/06 Q1017
Palma de Mallorca (LEPA) 17.01.2018 21:00 UTC Zobrazit METAR
LEPA 172100Z 04004KT 010V090 9999 FEW030 BKN050 11/09 Q1026 NOSIG
Panama City (MPTO) 17.01.2018 12:00 UTC Zobrazit METAR
MPTO 171200Z 30005KT 9000 SCT017 SCT090 24/22 Q1011 NOSIG
Paramaribo (SMZO) 17.01.2018 21:00 UTC Zobrazit METAR
SMZO 172100Z 06008KT 9999 FEW020 29/24 Q1010 NOSIG
Paris (LFPG) 17.01.2018 21:00 UTC Zobrazit METAR
LFPG 172100Z 24015KT CAVOK 06/02 Q1014 NOSIG
Paro (VQPR) 17.01.2018 10:00 UTC Zobrazit METAR
VQPR 171000Z 14017KT 9999 NSC 16/M03 Q1013
Phnom Penh (VDPP) 17.01.2018 19:00 UTC Zobrazit METAR
VDPP 171900Z 06003KT 9999 SCT017 SCT040 27/22 Q1008
Plovdiv (LBPD) 17.01.2018 21:00 UTC Zobrazit METAR
LBPD 172100Z AUTO 26020KT 9999 RA FEW035/// OVC042/// 05/05 Q0993
Pohnpei I (PTPN) 15.01.2018 23:50 UTC Zobrazit METAR
PTPN 152350Z 13006KT 15SM BKN018 BKN130 31/24 A2974
Ponta Delgada (LPPD) 17.01.2018 21:00 UTC Zobrazit METAR
LPPD 172100Z 28003KT 250V310 9999 FEW020 BKN028 15/11 Q1034
Pori (EFPO) 17.01.2018 20:50 UTC Zobrazit METAR
EFPO 172050Z AUTO 08007KT 9999 -SN FEW079/// SCT100/// M09/M11 Q0998
Port Moresby (AYPY) 17.01.2018 21:00 UTC Zobrazit METAR
AYPY 172100Z VRB03KT 9999 FEW040 24/23 Q1007
Port of Spain (TTPP) 17.01.2018 21:00 UTC Zobrazit METAR
TTPP 172100Z 11009KT 9999 FEW018 28/23 Q1012 NOSIG
Port Vila (NVVV) 16.01.2018 11:00 UTC Zobrazit METAR
NVVV 161100Z 04002KT 9999 FEW025 24/23 Q1010
Port-au-Prince (MTPP) 17.01.2018 21:00 UTC Zobrazit METAR
MTPP 172100Z 29010KT 9999 SCT026 BKN220 29/21 Q1013 A2993
Porto (LPPR) 17.01.2018 21:00 UTC Zobrazit METAR
LPPR 172100Z 36005KT 7000 NSC 06/06 Q1027
Poznan (EPPO) 17.01.2018 21:00 UTC Zobrazit METAR
EPPO 172100Z 26009KT 8000 -SN BKN006 00/M00 Q0999 R10/29//95
Prague (LKPR) 17.01.2018 21:00 UTC Zobrazit METAR
LKPR 172100Z 24014KT 9999 -SN SCT022 BKN035 M00/M01 Q1003 R24/520295 R30/550295 TEMPO TL2200 3000 SN BKN012
Praia (GVFM) Zatím nenačteno  
Pyongyang (ZKPY) Zatím nenačteno  
Reklama

Počasí na Váš email

Emaily jsou bez reklamy a bez spamu



Odhlásit newsletter

Reklama


Lunární kalendář

  • 24.01.
  • 31.01.
  • 07.02.
  • 15.02.



Jsme na Google Plus

Reklama
Povinné ručení



Může Vás také zajímat:


Reklama